sensor_id;sensor_type;location;lat;lon;timestamp;pressure;altitude;pressure_sealevel;temperature;humidity
37848;BME280;23688;33.130;-117.188;2022-10-31T00:01:29;99252.25;;;22.90;46.53
37848;BME280;23688;33.130;-117.188;2022-10-31T00:03:56;99255.63;;;23.01;47.00
37848;BME280;23688;33.130;-117.188;2022-10-31T00:06:23;99249.59;;;22.87;48.39
37848;BME280;23688;33.130;-117.188;2022-10-31T00:08:55;99250.56;;;22.81;47.85
37848;BME280;23688;33.130;-117.188;2022-10-31T00:11:22;99250.53;;;22.84;45.48
37848;BME280;23688;33.130;-117.188;2022-10-31T00:13:48;99250.47;;;22.89;46.03
37848;BME280;23688;33.130;-117.188;2022-10-31T00:16:16;99251.31;;;22.91;46.07
37848;BME280;23688;33.130;-117.188;2022-10-31T00:18:43;99255.69;;;22.95;46.76
37848;BME280;23688;33.130;-117.188;2022-10-31T00:21:09;99246.94;;;22.89;47.88
37848;BME280;23688;33.130;-117.188;2022-10-31T00:23:38;99258.34;;;22.92;46.87
37848;BME280;23688;33.130;-117.188;2022-10-31T00:26:04;99255.94;;;22.75;48.58
37848;BME280;23688;33.130;-117.188;2022-10-31T00:28:33;99244.78;;;22.49;49.61
37848;BME280;23688;33.130;-117.188;2022-10-31T00:31:03;99257.19;;;22.40;48.54
37848;BME280;23688;33.130;-117.188;2022-10-31T00:33:30;99236.13;;;22.33;48.59
37848;BME280;23688;33.130;-117.188;2022-10-31T00:35:59;99243.88;;;22.48;49.42
37848;BME280;23688;33.130;-117.188;2022-10-31T00:38:31;99251.00;;;22.46;49.37
37848;BME280;23688;33.130;-117.188;2022-10-31T00:40:57;99257.19;;;22.40;49.78
37848;BME280;23688;33.130;-117.188;2022-10-31T00:43:27;99254.72;;;22.27;49.18
37848;BME280;23688;33.130;-117.188;2022-10-31T00:45:55;99239.00;;;22.05;49.57
37848;BME280;23688;33.130;-117.188;2022-10-31T00:48:21;99246.84;;;22.17;49.46
37848;BME280;23688;33.130;-117.188;2022-10-31T00:50:47;99248.47;;;22.32;49.05
37848;BME280;23688;33.130;-117.188;2022-10-31T00:53:24;99255.47;;;22.39;49.32
37848;BME280;23688;33.130;-117.188;2022-10-31T00:55:51;99238.84;;;22.23;49.18
37848;BME280;23688;33.130;-117.188;2022-10-31T00:58:18;99264.25;;;22.41;48.54
37848;BME280;23688;33.130;-117.188;2022-10-31T01:00:46;99253.81;;;22.26;48.08
37848;BME280;23688;33.130;-117.188;2022-10-31T01:03:12;99259.97;;;22.28;48.16
37848;BME280;23688;33.130;-117.188;2022-10-31T01:05:39;99268.88;;;22.15;49.60
37848;BME280;23688;33.130;-117.188;2022-10-31T01:08:05;99269.88;;;22.01;49.88
37848;BME280;23688;33.130;-117.188;2022-10-31T01:10:32;99264.69;;;21.92;49.92
37848;BME280;23688;33.130;-117.188;2022-10-31T01:12:58;99268.25;;;21.90;50.05
37848;BME280;23688;33.130;-117.188;2022-10-31T01:15:24;99274.47;;;21.83;50.28
37848;BME280;23688;33.130;-117.188;2022-10-31T01:17:52;99272.75;;;21.75;50.42
37848;BME280;23688;33.130;-117.188;2022-10-31T01:20:21;99274.56;;;21.67;50.79
37848;BME280;23688;33.130;-117.188;2022-10-31T01:22:48;99275.50;;;21.58;50.93
37848;BME280;23688;33.130;-117.188;2022-10-31T01:25:16;99286.16;;;21.46;50.65
37848;BME280;23688;33.130;-117.188;2022-10-31T01:27:42;99275.69;;;21.25;51.30
37848;BME280;23688;33.130;-117.188;2022-10-31T01:30:09;99281.91;;;21.10;51.64
37848;BME280;23688;33.130;-117.188;2022-10-31T01:32:36;99279.34;;;20.93;51.69
37848;BME280;23688;33.130;-117.188;2022-10-31T01:35:02;99283.81;;;20.79;51.42
37848;BME280;23688;33.130;-117.188;2022-10-31T01:37:30;99289.13;;;20.63;50.93
37848;BME280;23688;33.130;-117.188;2022-10-31T01:39:56;99276.81;;;20.47;50.14
37848;BME280;23688;33.130;-117.188;2022-10-31T01:42:24;99304.09;;;20.41;49.45
37848;BME280;23688;33.130;-117.188;2022-10-31T01:44:55;99297.94;;;20.30;49.09
37848;BME280;23688;33.130;-117.188;2022-10-31T01:47:27;99306.75;;;20.17;47.52
37848;BME280;23688;33.130;-117.188;2022-10-31T01:50:03;99312.88;;;20.02;47.16
37848;BME280;23688;33.130;-117.188;2022-10-31T01:52:45;99317.25;;;19.84;46.50
37848;BME280;23688;33.130;-117.188;2022-10-31T01:55:23;99319.84;;;19.66;46.95
37848;BME280;23688;33.130;-117.188;2022-10-31T01:57:54;99314.56;;;19.49;46.92
37848;BME280;23688;33.130;-117.188;2022-10-31T02:00:21;99321.56;;;19.36;46.68
37848;BME280;23688;33.130;-117.188;2022-10-31T02:02:49;99322.38;;;19.28;46.31
37848;BME280;23688;33.130;-117.188;2022-10-31T02:05:22;99324.94;;;19.08;46.64
37848;BME280;23688;33.130;-117.188;2022-10-31T02:08:12;99334.56;;;19.04;47.39
37848;BME280;23688;33.130;-117.188;2022-10-31T02:10:40;99323.13;;;18.91;46.30
37848;BME280;23688;33.130;-117.188;2022-10-31T02:13:08;99332.72;;;18.85;46.39
37848;BME280;23688;33.130;-117.188;2022-10-31T02:15:36;99335.22;;;18.68;46.62
37848;BME280;23688;33.130;-117.188;2022-10-31T02:18:04;99330.81;;;18.64;47.70
37848;BME280;23688;33.130;-117.188;2022-10-31T02:23:43;99342.19;;;18.63;48.34
37848;BME280;23688;33.130;-117.188;2022-10-31T02:40:30;99361.09;;;18.11;44.57
37848;BME280;23688;33.130;-117.188;2022-10-31T02:48:28;99362.38;;;17.66;43.67
37848;BME280;23688;33.130;-117.188;2022-10-31T02:50:59;99352.56;;;17.49;43.56
37848;BME280;23688;33.130;-117.188;2022-10-31T02:53:26;99352.50;;;17.43;43.91
37848;BME280;23688;33.130;-117.188;2022-10-31T02:56:13;99358.66;;;17.44;43.82
37848;BME280;23688;33.130;-117.188;2022-10-31T03:01:33;99356.97;;;17.52;42.90
37848;BME280;23688;33.130;-117.188;2022-10-31T03:10:31;99338.69;;;17.60;43.30
37848;BME280;23688;33.130;-117.188;2022-10-31T03:15:49;99370.22;;;17.61;43.48
37848;BME280;23688;33.130;-117.188;2022-10-31T03:21:11;99378.06;;;17.60;42.99
37848;BME280;23688;33.130;-117.188;2022-10-31T03:23:44;99377.91;;;17.44;43.54
37848;BME280;23688;33.130;-117.188;2022-10-31T03:26:13;99387.41;;;17.36;43.00
37848;BME280;23688;33.130;-117.188;2022-10-31T03:28:49;99366.22;;;17.21;44.87
37848;BME280;23688;33.130;-117.188;2022-10-31T03:31:19;99382.13;;;17.33;44.17
37848;BME280;23688;33.130;-117.188;2022-10-31T03:33:49;99385.72;;;17.40;43.46
37848;BME280;23688;33.130;-117.188;2022-10-31T03:36:16;99383.97;;;17.43;43.64
37848;BME280;23688;33.130;-117.188;2022-10-31T03:38:45;99377.81;;;17.38;43.56
37848;BME280;23688;33.130;-117.188;2022-10-31T03:41:18;99379.44;;;17.28;43.88
37848;BME280;23688;33.130;-117.188;2022-10-31T03:43:55;99386.31;;;17.19;44.13
37848;BME280;23688;33.130;-117.188;2022-10-31T03:46:24;99387.03;;;17.05;45.22
37848;BME280;23688;33.130;-117.188;2022-10-31T03:48:50;99399.16;;;16.99;46.18
37848;BME280;23688;33.130;-117.188;2022-10-31T03:51:27;99394.66;;;16.88;47.86
37848;BME280;23688;33.130;-117.188;2022-10-31T03:59:36;99392.66;;;16.75;50.77
37848;BME280;23688;33.130;-117.188;2022-10-31T04:02:12;99401.56;;;16.85;51.77
37848;BME280;23688;33.130;-117.188;2022-10-31T04:04:40;99389.34;;;16.84;55.59
37848;BME280;23688;33.130;-117.188;2022-10-31T04:07:09;99395.28;;;16.75;51.32
37848;BME280;23688;33.130;-117.188;2022-10-31T04:09:40;99390.81;;;16.66;50.73
37848;BME280;23688;33.130;-117.188;2022-10-31T04:12:13;99387.16;;;16.57;50.54
37848;BME280;23688;33.130;-117.188;2022-10-31T04:14:47;99398.53;;;16.56;50.45
37848;BME280;23688;33.130;-117.188;2022-10-31T04:17:16;99400.19;;;16.52;50.94
37848;BME280;23688;33.130;-117.188;2022-10-31T04:19:45;99389.50;;;16.40;52.61
37848;BME280;23688;33.130;-117.188;2022-10-31T04:22:11;99403.47;;;16.39;51.23
37848;BME280;23688;33.130;-117.188;2022-10-31T04:24:39;99405.13;;;16.34;50.16
37848;BME280;23688;33.130;-117.188;2022-10-31T04:27:08;99406.56;;;16.16;48.93
37848;BME280;23688;33.130;-117.188;2022-10-31T04:29:34;99411.41;;;15.93;50.14
37848;BME280;23688;33.130;-117.188;2022-10-31T04:32:01;99405.91;;;15.78;51.28
37848;BME280;23688;33.130;-117.188;2022-10-31T04:34:27;99410.31;;;15.82;50.14
37848;BME280;23688;33.130;-117.188;2022-10-31T04:36:54;99415.63;;;15.85;51.62
37848;BME280;23688;33.130;-117.188;2022-10-31T04:39:20;99401.53;;;15.78;50.73
37848;BME280;23688;33.130;-117.188;2022-10-31T04:41:46;99412.75;;;15.71;52.65
37848;BME280;23688;33.130;-117.188;2022-10-31T04:44:12;99408.06;;;15.58;53.98
37848;BME280;23688;33.130;-117.188;2022-10-31T04:46:39;99405.22;;;15.46;53.15
37848;BME280;23688;33.130;-117.188;2022-10-31T04:49:05;99407.09;;;15.51;51.55
37848;BME280;23688;33.130;-117.188;2022-10-31T04:51:31;99419.28;;;15.51;53.52
37848;BME280;23688;33.130;-117.188;2022-10-31T04:53:58;99416.59;;;15.46;54.45
37848;BME280;23688;33.130;-117.188;2022-10-31T04:56:26;99413.88;;;15.41;54.87
37848;BME280;23688;33.130;-117.188;2022-10-31T04:58:53;99413.88;;;15.41;55.76
37848;BME280;23688;33.130;-117.188;2022-10-31T05:01:19;99417.28;;;15.37;56.28
37848;BME280;23688;33.130;-117.188;2022-10-31T05:03:46;99404.91;;;15.30;56.01
37848;BME280;23688;33.130;-117.188;2022-10-31T05:06:12;99408.50;;;15.35;54.81
37848;BME280;23688;33.130;-117.188;2022-10-31T05:08:38;99403.31;;;15.37;56.88
37848;BME280;23688;33.130;-117.188;2022-10-31T05:11:05;99412.84;;;15.35;59.16
37848;BME280;23688;33.130;-117.188;2022-10-31T05:13:31;99406.59;;;15.27;59.33
37848;BME280;23688;33.130;-117.188;2022-10-31T05:15:57;99399.53;;;15.23;59.15
37848;BME280;23688;33.130;-117.188;2022-10-31T05:18:23;99398.75;;;15.28;58.68
37848;BME280;23688;33.130;-117.188;2022-10-31T05:20:50;99403.16;;;15.29;57.43
37848;BME280;23688;33.130;-117.188;2022-10-31T05:23:16;99408.41;;;15.31;53.85
37848;BME280;23688;33.130;-117.188;2022-10-31T05:25:42;99406.66;;;15.31;48.64
37848;BME280;23688;33.130;-117.188;2022-10-31T05:28:09;99404.88;;;15.29;47.34
37848;BME280;23688;33.130;-117.188;2022-10-31T05:30:35;99396.19;;;15.31;47.00
37848;BME280;23688;33.130;-117.188;2022-10-31T05:33:02;99405.84;;;15.32;48.83
37848;BME280;23688;33.130;-117.188;2022-10-31T05:35:30;99403.16;;;15.31;52.16
37848;BME280;23688;33.130;-117.188;2022-10-31T05:37:58;99402.28;;;15.30;53.58
37848;BME280;23688;33.130;-117.188;2022-10-31T05:40:26;99397.72;;;15.20;54.20
37848;BME280;23688;33.130;-117.188;2022-10-31T05:42:54;99408.19;;;15.20;55.00
37848;BME280;23688;33.130;-117.188;2022-10-31T05:45:25;99393.81;;;15.01;55.10
37848;BME280;23688;33.130;-117.188;2022-10-31T05:47:56;99396.38;;;14.98;55.90
37848;BME280;23688;33.130;-117.188;2022-10-31T05:50:24;99401.72;;;15.04;56.87
37848;BME280;23688;33.130;-117.188;2022-10-31T05:52:58;99399.22;;;15.09;59.26
37848;BME280;23688;33.130;-117.188;2022-10-31T05:55:26;99389.56;;;15.05;59.18
37848;BME280;23688;33.130;-117.188;2022-10-31T05:57:53;99384.28;;;15.03;57.31
37848;BME280;23688;33.130;-117.188;2022-10-31T06:00:21;99388.75;;;15.07;60.25
37848;BME280;23688;33.130;-117.188;2022-10-31T06:02:48;99389.75;;;15.14;61.01
37848;BME280;23688;33.130;-117.188;2022-10-31T06:05:16;99389.78;;;15.15;61.33
37848;BME280;23688;33.130;-117.188;2022-10-31T06:07:46;99389.75;;;15.14;61.38
37848;BME280;23688;33.130;-117.188;2022-10-31T06:10:12;99378.41;;;15.12;60.75
37848;BME280;23688;33.130;-117.188;2022-10-31T06:12:39;99374.06;;;15.14;60.62
37848;BME280;23688;33.130;-117.188;2022-10-31T06:15:08;99390.84;;;15.25;60.89
37848;BME280;23688;33.130;-117.188;2022-10-31T06:17:36;99391.69;;;15.23;60.74
37848;BME280;23688;33.130;-117.188;2022-10-31T06:20:04;99392.44;;;15.18;60.38
37848;BME280;23688;33.130;-117.188;2022-10-31T06:22:32;99385.47;;;15.17;59.22
37848;BME280;23688;33.130;-117.188;2022-10-31T06:24:58;99394.09;;;15.12;58.15
37848;BME280;23688;33.130;-117.188;2022-10-31T06:27:25;99393.16;;;15.10;55.91
37848;BME280;23688;33.130;-117.188;2022-10-31T06:29:52;99398.50;;;15.14;54.75
37848;BME280;23688;33.130;-117.188;2022-10-31T06:32:18;99390.56;;;15.11;55.82
37848;BME280;23688;33.130;-117.188;2022-10-31T06:34:45;99388.75;;;15.09;54.72
37848;BME280;23688;33.130;-117.188;2022-10-31T06:37:13;99395.63;;;15.02;54.05
37848;BME280;23688;33.130;-117.188;2022-10-31T06:39:40;99391.81;;;14.89;53.12
37848;BME280;23688;33.130;-117.188;2022-10-31T06:42:06;99391.44;;;14.71;51.96
37848;BME280;23688;33.130;-117.188;2022-10-31T06:44:35;99394.69;;;14.61;50.59
37848;BME280;23688;33.130;-117.188;2022-10-31T06:47:02;99387.53;;;14.53;48.54
37848;BME280;23688;33.130;-117.188;2022-10-31T06:49:28;99383.00;;;14.48;48.25
37848;BME280;23688;33.130;-117.188;2022-10-31T06:51:54;99377.88;;;14.52;49.63
37848;BME280;23688;33.130;-117.188;2022-10-31T06:54:21;99376.91;;;14.47;50.29
37848;BME280;23688;33.130;-117.188;2022-10-31T06:56:49;99378.47;;;14.41;51.19
37848;BME280;23688;33.130;-117.188;2022-10-31T06:59:16;99377.66;;;14.43;53.57
37848;BME280;23688;33.130;-117.188;2022-10-31T07:01:43;99378.56;;;14.44;54.73
37848;BME280;23688;33.130;-117.188;2022-10-31T07:04:10;99374.91;;;14.37;52.47
37848;BME280;23688;33.130;-117.188;2022-10-31T07:06:37;99382.47;;;14.25;53.53
37848;BME280;23688;33.130;-117.188;2022-10-31T07:09:04;99364.91;;;14.19;55.12
37848;BME280;23688;33.130;-117.188;2022-10-31T07:11:31;99372.06;;;14.28;55.88
37848;BME280;23688;33.130;-117.188;2022-10-31T07:13:57;99361.50;;;14.22;55.38
37848;BME280;23688;33.130;-117.188;2022-10-31T07:16:23;99371.94;;;14.22;55.74
37848;BME280;23688;33.130;-117.188;2022-10-31T07:18:50;99366.66;;;14.20;56.46
37848;BME280;23688;33.130;-117.188;2022-10-31T07:21:16;99364.00;;;14.19;57.53
37848;BME280;23688;33.130;-117.188;2022-10-31T07:23:44;99363.25;;;14.23;59.93
37848;BME280;23688;33.130;-117.188;2022-10-31T07:26:12;99368.66;;;14.30;60.59
37848;BME280;23688;33.130;-117.188;2022-10-31T07:28:39;99356.47;;;14.29;60.75
37848;BME280;23688;33.130;-117.188;2022-10-31T07:31:05;99351.25;;;14.31;60.13
37848;BME280;23688;33.130;-117.188;2022-10-31T07:33:31;99360.00;;;14.33;59.96
37848;BME280;23688;33.130;-117.188;2022-10-31T07:35:58;99375.03;;;14.42;59.97
37848;BME280;23688;33.130;-117.188;2022-10-31T07:38:24;99369.75;;;14.40;59.06
37848;BME280;23688;33.130;-117.188;2022-10-31T07:40:51;99361.16;;;14.44;59.27
37848;BME280;23688;33.130;-117.188;2022-10-31T07:43:22;99356.00;;;14.47;58.88
37848;BME280;23688;33.130;-117.188;2022-10-31T07:45:53;99356.19;;;14.53;59.68
37848;BME280;23688;33.130;-117.188;2022-10-31T07:48:20;99361.44;;;14.55;60.20
37848;BME280;23688;33.130;-117.188;2022-10-31T07:50:48;99357.00;;;14.52;60.21
37848;BME280;23688;33.130;-117.188;2022-10-31T07:53:14;99354.31;;;14.49;59.74
37848;BME280;23688;33.130;-117.188;2022-10-31T07:55:41;99357.75;;;14.48;59.08
37848;BME280;23688;33.130;-117.188;2022-10-31T07:58:12;99360.28;;;14.44;59.90
37848;BME280;23688;33.130;-117.188;2022-10-31T08:00:42;99365.28;;;14.36;58.41
37848;BME280;23688;33.130;-117.188;2022-10-31T08:03:11;99367.59;;;14.22;58.20
37848;BME280;23688;33.130;-117.188;2022-10-31T08:05:38;99357.16;;;14.24;59.22
37848;BME280;23688;33.130;-117.188;2022-10-31T08:08:07;99359.88;;;14.27;59.20
37848;BME280;23688;33.130;-117.188;2022-10-31T08:10:34;99358.16;;;14.27;60.56
37848;BME280;23688;33.130;-117.188;2022-10-31T08:13:05;99360.81;;;14.29;61.23
37848;BME280;23688;33.130;-117.188;2022-10-31T08:15:33;99363.19;;;14.20;61.04
37848;BME280;23688;33.130;-117.188;2022-10-31T08:18:03;99375.16;;;14.11;60.51
37848;BME280;23688;33.130;-117.188;2022-10-31T08:20:30;99366.41;;;14.09;60.91
37848;BME280;23688;33.130;-117.188;2022-10-31T08:23:03;99367.31;;;14.11;61.20
37848;BME280;23688;33.130;-117.188;2022-10-31T08:25:34;99360.38;;;14.12;61.11
37848;BME280;23688;33.130;-117.188;2022-10-31T08:28:01;99368.94;;;14.06;61.05
37848;BME280;23688;33.130;-117.188;2022-10-31T08:30:30;99363.56;;;14.00;61.46
37848;BME280;23688;33.130;-117.188;2022-10-31T08:33:00;99368.69;;;13.97;61.60
37848;BME280;23688;33.130;-117.188;2022-10-31T08:35:27;99356.13;;;13.82;61.50
37848;BME280;23688;33.130;-117.188;2022-10-31T08:37:55;99358.75;;;13.82;61.75
37848;BME280;23688;33.130;-117.188;2022-10-31T08:40:23;99358.66;;;13.78;62.06
37848;BME280;23688;33.130;-117.188;2022-10-31T08:42:59;99370.66;;;13.73;63.30
37848;BME280;23688;33.130;-117.188;2022-10-31T08:45:27;99362.75;;;13.69;63.64
37848;BME280;23688;33.130;-117.188;2022-10-31T08:47:57;99354.06;;;13.69;63.59
37848;BME280;23688;33.130;-117.188;2022-10-31T08:50:24;99350.44;;;13.64;63.84
37848;BME280;23688;33.130;-117.188;2022-10-31T08:52:51;99353.84;;;13.61;64.07
37848;BME280;23688;33.130;-117.188;2022-10-31T08:55:17;99339.88;;;13.59;64.90
37848;BME280;23688;33.130;-117.188;2022-10-31T08:57:45;99350.53;;;13.67;64.57
37848;BME280;23688;33.130;-117.188;2022-10-31T09:00:11;99343.69;;;13.70;64.26
37848;BME280;23688;33.130;-117.188;2022-10-31T09:02:38;99346.44;;;13.77;63.80
37848;BME280;23688;33.130;-117.188;2022-10-31T09:05:05;99332.56;;;13.78;63.93
37848;BME280;23688;33.130;-117.188;2022-10-31T09:07:31;99334.44;;;13.83;63.31
37848;BME280;23688;33.130;-117.188;2022-10-31T09:09:58;99324.88;;;13.84;62.78
37848;BME280;23688;33.130;-117.188;2022-10-31T09:12:24;99321.41;;;13.85;62.26
37848;BME280;23688;33.130;-117.188;2022-10-31T09:14:50;99308.09;;;13.74;62.10
37848;BME280;23688;33.130;-117.188;2022-10-31T09:17:17;99321.25;;;13.79;61.79
37848;BME280;23688;33.130;-117.188;2022-10-31T09:19:43;99323.13;;;13.83;61.55
37848;BME280;23688;33.130;-117.188;2022-10-31T09:22:09;99322.25;;;13.84;61.31
37848;BME280;23688;33.130;-117.188;2022-10-31T09:24:35;99324.88;;;13.84;60.70
37848;BME280;23688;33.130;-117.188;2022-10-31T09:27:02;99316.16;;;13.83;59.51
37848;BME280;23688;33.130;-117.188;2022-10-31T09:29:28;99324.19;;;13.91;59.01
37848;BME280;23688;33.130;-117.188;2022-10-31T09:31:56;99315.72;;;14.01;58.08
37848;BME280;23688;33.130;-117.188;2022-10-31T09:34:23;99318.63;;;14.13;57.83
37848;BME280;23688;33.130;-117.188;2022-10-31T09:36:49;99324.91;;;14.20;57.62
37848;BME280;23688;33.130;-117.188;2022-10-31T09:39:15;99325.78;;;14.21;57.33
37848;BME280;23688;33.130;-117.188;2022-10-31T09:42:24;99335.88;;;14.07;58.69
37848;BME280;23688;33.130;-117.188;2022-10-31T09:47:54;99329.38;;;13.56;61.97
37848;BME280;23688;33.130;-117.188;2022-10-31T09:50:45;99324.56;;;13.72;61.63
37848;BME280;23688;33.130;-117.188;2022-10-31T09:53:47;99323.13;;;13.84;61.21
37848;BME280;23688;33.130;-117.188;2022-10-31T09:56:17;99324.00;;;13.85;60.90
37848;BME280;23688;33.130;-117.188;2022-10-31T09:58:46;99334.38;;;13.82;60.32
37848;BME280;23688;33.130;-117.188;2022-10-31T10:05:04;99332.19;;;13.64;61.41
37848;BME280;23688;33.130;-117.188;2022-10-31T10:09:49;99341.25;;;13.45;62.14
37848;BME280;23688;33.130;-117.188;2022-10-31T10:12:28;99336.63;;;13.36;62.81
37848;BME280;23688;33.130;-117.188;2022-10-31T10:20:38;99337.56;;;13.38;61.58
37848;BME280;23688;33.130;-117.188;2022-10-31T10:26:04;99334.31;;;13.15;62.53
37848;BME280;23688;33.130;-117.188;2022-10-31T10:28:38;99336.63;;;13.06;62.93
37848;BME280;23688;33.130;-117.188;2022-10-31T10:31:20;99342.38;;;12.94;63.58
37848;BME280;23688;33.130;-117.188;2022-10-31T10:34:07;99337.31;;;12.99;65.63
37848;BME280;23688;33.130;-117.188;2022-10-31T10:36:48;99322.88;;;13.10;66.92
37848;BME280;23688;33.130;-117.188;2022-10-31T10:39:22;99319.03;;;13.27;64.87
37848;BME280;23688;33.130;-117.188;2022-10-31T10:41:50;99332.22;;;13.34;65.54
37848;BME280;23688;33.130;-117.188;2022-10-31T10:44:40;99327.13;;;13.37;64.73
37848;BME280;23688;33.130;-117.188;2022-10-31T10:47:42;99309.63;;;13.33;63.29
37848;BME280;23688;33.130;-117.188;2022-10-31T10:50:19;99313.06;;;13.32;63.17
37848;BME280;23688;33.130;-117.188;2022-10-31T10:53:00;99313.28;;;13.39;62.64
37848;BME280;23688;33.130;-117.188;2022-10-31T10:58:44;99328.81;;;13.36;63.05
37848;BME280;23688;33.130;-117.188;2022-10-31T11:01:13;99311.22;;;13.27;63.05
37848;BME280;23688;33.130;-117.188;2022-10-31T11:03:40;99323.56;;;13.35;62.74
37848;BME280;23688;33.130;-117.188;2022-10-31T11:06:22;99308.66;;;13.29;62.77
37848;BME280;23688;33.130;-117.188;2022-10-31T11:08:52;99312.94;;;13.27;62.96
37848;BME280;23688;33.130;-117.188;2022-10-31T11:11:27;99296.28;;;13.23;64.36
37848;BME280;23688;33.130;-117.188;2022-10-31T11:14:05;99308.44;;;13.23;66.16
37848;BME280;23688;33.130;-117.188;2022-10-31T11:16:43;99303.03;;;13.15;67.01
37848;BME280;23688;33.130;-117.188;2022-10-31T11:19:20;99308.53;;;13.26;66.95
37848;BME280;23688;33.130;-117.188;2022-10-31T11:21:48;99304.97;;;13.22;67.96
37848;BME280;23688;33.130;-117.188;2022-10-31T11:24:20;99313.59;;;13.21;67.41
37848;BME280;23688;33.130;-117.188;2022-10-31T11:26:47;99318.66;;;13.15;67.07
37848;BME280;23688;33.130;-117.188;2022-10-31T11:29:20;99320.41;;;13.15;66.00
37848;BME280;23688;33.130;-117.188;2022-10-31T11:31:51;99315.97;;;13.12;65.92
37848;BME280;23688;33.130;-117.188;2022-10-31T11:34:42;99322.88;;;13.10;65.82
37848;BME280;23688;33.130;-117.188;2022-10-31T11:37:16;99320.28;;;13.12;65.69
37848;BME280;23688;33.130;-117.188;2022-10-31T11:39:47;99312.38;;;13.07;65.65
37848;BME280;23688;33.130;-117.188;2022-10-31T11:42:21;99310.50;;;13.03;66.07
37848;BME280;23688;33.130;-117.188;2022-10-31T11:44:51;99316.66;;;13.06;66.56
37848;BME280;23688;33.130;-117.188;2022-10-31T11:47:28;99310.41;;;13.00;66.77
37848;BME280;23688;33.130;-117.188;2022-10-31T11:50:02;99325.16;;;12.99;67.45
37848;BME280;23688;33.130;-117.188;2022-10-31T11:52:37;99310.06;;;12.88;67.66
37848;BME280;23688;33.130;-117.188;2022-10-31T11:55:38;99320.78;;;12.98;67.07
37848;BME280;23688;33.130;-117.188;2022-10-31T11:58:18;99309.63;;;13.02;65.88
37848;BME280;23688;33.130;-117.188;2022-10-31T12:00:50;99313.13;;;13.04;65.08
37848;BME280;23688;33.130;-117.188;2022-10-31T12:06:07;99305.22;;;13.00;64.58
37848;BME280;23688;33.130;-117.188;2022-10-31T12:08:38;99307.84;;;13.01;64.51
37848;BME280;23688;33.130;-117.188;2022-10-31T12:11:37;99312.25;;;13.04;63.86
37848;BME280;23688;33.130;-117.188;2022-10-31T12:16:52;99305.28;;;13.03;62.85
37848;BME280;23688;33.130;-117.188;2022-10-31T12:19:35;99309.50;;;12.98;62.75
37848;BME280;23688;33.130;-117.188;2022-10-31T12:25:01;99300.66;;;12.93;62.64
37848;BME280;23688;33.130;-117.188;2022-10-31T12:27:37;99294.47;;;12.89;62.33
37848;BME280;23688;33.130;-117.188;2022-10-31T12:32:51;99302.84;;;12.79;61.00
37848;BME280;23688;33.130;-117.188;2022-10-31T12:35:38;99287.94;;;12.73;59.97
37848;BME280;23688;33.130;-117.188;2022-10-31T12:38:28;99293.31;;;12.79;59.14
37848;BME280;23688;33.130;-117.188;2022-10-31T12:44:34;99291.34;;;12.71;58.49
37848;BME280;23688;33.130;-117.188;2022-10-31T12:52:31;99298.06;;;12.64;59.77
37848;BME280;23688;33.130;-117.188;2022-10-31T12:57:40;99286.81;;;12.65;59.20
37848;BME280;23688;33.130;-117.188;2022-10-31T13:00:16;99283.25;;;12.61;58.96
37848;BME280;23688;33.130;-117.188;2022-10-31T13:03:14;99267.41;;;12.55;59.10
37848;BME280;23688;33.130;-117.188;2022-10-31T13:05:46;99263.78;;;12.49;59.63
37848;BME280;23688;33.130;-117.188;2022-10-31T13:08:18;99288.13;;;12.51;59.76
37848;BME280;23688;33.130;-117.188;2022-10-31T13:16:13;99279.06;;;12.38;60.79
37848;BME280;23688;33.130;-117.188;2022-10-31T13:18:44;99272.91;;;12.36;61.31
37848;BME280;23688;33.130;-117.188;2022-10-31T13:21:25;99273.44;;;12.24;62.16
37848;BME280;23688;33.130;-117.188;2022-10-31T13:23:55;99274.91;;;12.16;62.68
37848;BME280;23688;33.130;-117.188;2022-10-31T13:26:37;99281.63;;;12.09;62.69
37848;BME280;23688;33.130;-117.188;2022-10-31T13:29:32;99276.19;;;12.02;62.84
37848;BME280;23688;33.130;-117.188;2022-10-31T13:32:04;99279.47;;;11.96;63.20
37848;BME280;23688;33.130;-117.188;2022-10-31T13:34:37;99264.31;;;11.84;63.19
37848;BME280;23688;33.130;-117.188;2022-10-31T13:40:07;99263.75;;;11.66;63.85
37848;BME280;23688;33.130;-117.188;2022-10-31T13:45:19;99248.44;;;11.49;62.90
37848;BME280;23688;33.130;-117.188;2022-10-31T13:50:42;99244.22;;;11.53;60.54
37848;BME280;23688;33.130;-117.188;2022-10-31T13:53:18;99240.13;;;11.60;59.90
37848;BME280;23688;33.130;-117.188;2022-10-31T13:55:47;99244.91;;;11.73;59.07
37848;BME280;23688;33.130;-117.188;2022-10-31T13:58:23;99238.94;;;11.77;59.48
37848;BME280;23688;33.130;-117.188;2022-10-31T14:03:33;99237.72;;;11.91;59.40
37848;BME280;23688;33.130;-117.188;2022-10-31T14:06:01;99238.78;;;11.98;59.69
37848;BME280;23688;33.130;-117.188;2022-10-31T14:08:31;99231.72;;;11.94;59.50
37848;BME280;23688;33.130;-117.188;2022-10-31T14:10:59;99245.97;;;12.05;58.22
37848;BME280;23688;33.130;-117.188;2022-10-31T14:16:00;99236.28;;;12.01;55.87
37848;BME280;23688;33.130;-117.188;2022-10-31T14:18:37;99232.88;;;12.04;56.04
37848;BME280;23688;33.130;-117.188;2022-10-31T14:21:37;99234.84;;;12.11;55.41
37848;BME280;23688;33.130;-117.188;2022-10-31T14:27:02;99248.19;;;12.21;54.27
37848;BME280;23688;33.130;-117.188;2022-10-31T14:29:30;99241.38;;;12.25;54.28
37848;BME280;23688;33.130;-117.188;2022-10-31T14:32:24;99253.16;;;12.14;54.83
37848;BME280;23688;33.130;-117.188;2022-10-31T14:34:58;99251.00;;;11.75;56.61
37848;BME280;23688;33.130;-117.188;2022-10-31T14:43:22;99261.91;;;11.89;57.29